Latest Weather Observations for Glen Innes Airport

IDN60801

Issued at 1:04 pm EST Friday 26 August 2016 (issued every 30 minutes, with the page automatically refreshed every 10 minutes)

About weather observations | Map of weather stations | Latest weather observations for NSW | Other Formats
Station Details ID: 056243 Name: GLEN INNES AIRPORT AWS Lat: -29.68 Lon: 151.69 Height: 1044.3 m
Data from the previous 72 hours. | See also: Recent months at Glen Innes Airport
Date/Time
EST
Temp
°C
App
Temp
°C
Dew
Point
°C
Rel
Hum
%
Delta-T
°C
Wind Press
QNH
hPa
Press
MSL
hPa
Rain since
9am
mm
Dir  Spd
km/h
Gust
km/h
Spd
kts
Gust
kts
26/01:00pm 9.8 4.9 -0.7 48 4.4 SW 15 20 8 11 1016.1 1016.2 0.0
26/12:30pm 9.2 4.9 -1.5 47 4.4 S 11 22 6 12 1016.5 1016.6 0.0
26/12:00pm 8.5 4.1 0.5 57 3.4 WSW 13 22 7 12 1016.7 1016.9 0.0
26/11:30am 8.2 4.2 -2.1 48 4.1 SW 9 19 5 10 1017.1 1017.2 0.0
26/11:00am 8.1 3.9 -0.9 53 3.7 SSW 11 17 6 9 1017.3 1017.4 0.0
26/10:30am 7.0 2.4 -1.4 55 3.4 SW 13 17 7 9 1017.5 1017.6 0.0
26/10:00am 6.0 1.8 -1.2 60 2.9 SSW 11 17 6 9 1017.6 1017.8 0.0
26/09:30am 5.0 0.8 -0.8 66 2.3 WSW 11 17 6 9 1017.8 1018.0 0.0
26/09:00am 4.1 -0.1 -0.7 71 1.9 SSW 11 17 6 9 1017.9 1018.1 0.2
26/08:30am 2.5 0.7 1.0 90 0.6 CALM 0 9 0 5 1018.2 1018.3 0.2
26/08:05am 1.8 0.0 1.1 95 0.3 CALM 0 0 0 0 1018.1 1018.2 0.2
26/08:00am 1.3 -0.6 0.6 95 0.3 CALM 0 0 0 0 1018.1 1018.2 0.2
26/07:30am -0.9 -3.1 -1.2 98 0.1 CALM 0 0 0 0 1018.1 1018.2 0.2
26/07:00am -3.2 -5.7 -3.6 97 0.0 CALM 0 0 0 0 1017.8 1018.0 0.0
26/06:35am -4.3 -6.9 -4.8 96 0.0 CALM 0 0 0 0 1017.1 1017.2 0.0
26/06:34am -4.2 -6.8 -4.7 96 0.0 CALM 0 0 0 0 1017.1 1017.2 0.0
26/06:30am -3.6 -6.1 -4.1 96 0.0 CALM 0 0 0 0 1017.0 1017.1 0.0
26/06:24am -4.3 -6.9 -4.8 96 0.0 CALM 0 0 0 0 1017.0 1017.1 0.0
26/06:16am -4.3 -6.9 -4.8 96 0.0 CALM 0 0 0 0 1016.8 1017.0 0.0
26/06:02am -4.5 -7.1 -5.2 95 0.0 CALM 0 0 0 0 1016.7 1016.9 0.0
26/06:00am -4.5 -7.1 -5.2 95 0.0 CALM 0 0 0 0 1016.7 1016.9 0.0
26/05:52am -3.8 -6.3 -4.2 97 0.0 CALM 0 0 0 0 1016.7 1016.9 0.0
26/05:45am -3.4 -5.9 -3.8 97 0.0 CALM 0 0 0 0 1016.7 1016.9 0.0
26/05:30am -3.3 -5.8 -3.8 96 0.0 CALM 0 0 0 0 1016.5 1016.6 0.0
26/05:15am -2.9 -5.3 -3.4 96 0.0 CALM 0 0 0 0 1016.2 1016.3 0.0
26/05:00am -2.2 -4.5 -2.6 97 0.0 CALM 0 0 0 0 1016.1 1016.2 0.0
26/04:44am -2.4 -4.8 -2.9 96 0.1 CALM 0 0 0 0 1015.8 1015.9 0.0
26/04:30am -3.0 -5.5 -4.0 93 0.2 CALM 0 0 0 0 1015.8 1015.9 0.0
26/04:29am -3.0 -5.5 -4.1 92 0.2 CALM 0 0 0 0 1015.8 1015.9 0.0
26/04:00am -1.1 -3.3 -1.7 96 0.2 CALM 0 0 0 0 1015.6 1015.7 0.0
26/03:30am -1.8 -4.5 -2.6 94 0.2 WNW 2 6 1 3 1015.7 1015.8 0.0
26/03:00am -0.7 -4.6 -1.5 94 0.3 WSW 9 11 5 6 1015.6 1015.7 0.0
26/02:30am -0.2 -4.4 -0.6 97 0.1 W 11 13 6 7 1015.7 1015.8 0.0
26/02:00am -0.7 -5.4 -1.5 94 0.3 W 13 15 7 8 1015.8 1015.9 0.0
26/01:30am 0.1 -3.7 -0.9 93 0.4 W 9 11 5 6 1016.1 1016.2 0.0
26/01:00am 0.7 -2.7 -0.3 93 0.4 WNW 7 9 4 5 1016.3 1016.4 0.0
26/12:30am 1.8 -2.2 0.2 89 0.6 WSW 11 15 6 8 1016.4 1016.5 0.0
26/12:00am 2.2 -2.1 0.9 91 0.5 SW 13 19 7 10 1016.1 1016.2 0.0
 
Date/Time
EST
Temp
°C
App
Temp
°C
Dew
Point
°C
Rel
Hum
%
Delta-T
°C
Wind Press
QNH
hPa
Press
MSL
hPa
Rain since
9am
mm
Dir  Spd
km/h
Gust
km/h
Spd
kts
Gust
kts
25/11:30pm 1.9 -2.1 0.6 91 0.5 WSW 11 15 6 8 1016.2 1016.3 0.0
25/11:00pm 1.4 -2.6 0.4 93 0.4 WSW 11 15 6 8 1015.8 1015.9 0.0
25/10:30pm 2.0 -2.4 0.2 88 0.7 WSW 13 17 7 9 1016.1 1016.2 0.0
25/10:00pm 2.2 -1.8 0.4 88 0.7 SSW 11 13 6 7 1016.2 1016.3 0.0
25/09:30pm 3.9 0.4 1.4 84 1.0 SW 9 13 5 7 1016.4 1016.5 0.0
25/09:00pm 4.6 1.9 2.8 88 0.8 WSW 6 9 3 5 1016.5 1016.6 0.0
25/08:30pm 3.6 0.1 1.5 86 0.9 WSW 9 13 5 7 1016.2 1016.3 0.0
25/08:00pm 3.4 1.5 0.8 83 1.1 CALM 0 0 0 0 1016.0 1016.1 0.0
25/07:30pm 2.3 0.3 -0.4 82 1.1 CALM 0 0 0 0 1015.7 1015.8 0.0
25/07:00pm 3.7 1.0 0.4 79 1.3 SW 4 7 2 4 1015.2 1015.3 0.0
25/06:30pm 4.2 -0.1 1.1 80 1.3 WSW 13 19 7 10 1014.6 1014.7 0.0
25/06:00pm 4.9 1.0 1.2 77 1.6 WSW 11 15 6 8 1014.3 1014.4 0.0
25/05:30pm 6.3 0.9 1.2 70 2.2 WSW 19 24 10 13 1014.0 1014.0 0.0
25/05:00pm 8.0 3.1 2.3 67 2.5 WSW 17 28 9 15 1013.6 1013.7 0.0
25/04:30pm 7.8 1.7 2.5 69 2.4 SW 24 33 13 18 1013.1 1013.1 0.0
25/04:00pm 8.1 1.4 1.5 63 2.9 WSW 26 35 14 19 1012.7 1012.8 0.0
25/03:30pm 7.7 1.2 2.4 69 2.4 WSW 26 35 14 19 1012.5 1012.5 0.0
25/03:00pm 8.3 1.9 3.2 70 2.3 WSW 26 39 14 21 1012.3 1012.3 0.0
25/02:30pm 8.8 2.4 3.2 68 2.6 W 26 41 14 22 1012.1 1012.1 0.0
25/02:00pm 8.0 1.5 2.7 69 2.4 WSW 26 37 14 20 1012.1 1012.1 0.0
25/01:30pm 7.9 1.6 3.8 75 1.9 WSW 26 39 14 21 1012.1 1012.1 0.0
25/01:00pm 8.2 1.5 3.9 74 2.0 W 28 35 15 19 1011.9 1011.9 0.0
25/12:38pm 7.5 1.2 3.6 76 1.8 W 26 37 14 20 1012.2 1012.2 0.0
25/12:30pm 7.6 1.0 4.0 78 1.7 W 28 37 15 20 1012.1 1012.1 0.0
25/12:00pm 6.9 0.2 3.9 81 1.4 W 28 37 15 20 1012.1 1012.1 0.0
25/11:30am 6.5 0.2 3.5 81 1.4 WSW 26 35 14 19 1012.3 1012.3 0.0
25/11:00am 5.8 -0.6 3.3 84 1.1 W 26 35 14 19 1012.3 1012.3 0.0
25/10:30am 5.4 -1.3 3.6 88 0.8 W 28 41 15 22 1012.3 1012.3 0.0
25/10:00am 4.8 -2.0 3.3 90 0.7 W 28 35 15 19 1012.2 1012.2 0.0
25/09:30am 4.7 -1.3 3.2 90 0.7 W 24 33 13 18 1012.1 1012.1 0.0
25/09:00am 4.8 -1.3 3.0 88 0.8 W 24 35 13 19 1011.7 1011.8 12.2
25/08:30am 4.7 -1.0 2.7 87 0.9 W 22 35 12 19 1011.4 1011.4 12.2
25/08:00am 4.3 -0.9 2.7 89 0.7 W 19 30 10 16 1011.4 1011.4 12.2
25/07:30am 4.0 -2.5 2.4 89 0.7 WNW 26 37 14 20 1010.9 1010.8 12.2
25/07:00am 4.3 -1.0 2.8 90 0.7 W 20 35 11 19 1010.4 1010.4 12.2
25/06:30am 4.3 -1.8 3.0 91 0.6 W 24 33 13 18 1010.0 1009.9 12.2
25/06:00am 4.3 -0.8 3.1 92 0.5 W 19 28 10 15 1009.6 1009.6 12.2
25/05:30am 4.4 -1.2 3.2 92 0.5 W 22 30 12 16 1009.1 1009.0 12.2
25/05:00am 4.5 -0.8 3.2 91 0.6 WNW 20 28 11 15 1009.0 1008.9 12.2
25/04:30am 4.9 -0.7 3.7 92 0.5 WNW 22 30 12 16 1008.8 1008.7 12.2
25/04:00am 5.0 -1.7 3.8 92 0.5 W 28 37 15 20 1008.8 1008.7 12.2
25/03:30am 5.3 -1.7 4.3 93 0.5 WNW 30 39 16 21 1008.5 1008.5 12.2
25/03:00am 5.5 -1.4 4.5 93 0.5 W 30 43 16 23 1008.2 1008.1 12.2
25/02:30am 5.9 -0.6 4.7 92 0.6 W 28 39 15 21 1008.5 1008.5 12.2
25/02:03am 6.1 0.0 4.6 90 0.7 W 26 37 14 20 1009.0 1008.9 12.2
25/02:00am 6.2 0.4 4.5 89 0.8 W 24 37 13 20 1009.1 1009.0 12.2
25/01:32am 6.4 -0.5 4.7 89 0.8 W 30 48 16 26 1009.3 1009.3 12.2
25/01:30am 6.4 -0.9 4.6 88 0.8 W 32 48 17 26 1009.4 1009.4 12.2
25/01:00am 7.0 -0.2 5.0 87 0.9 W 32 41 17 22 1009.3 1009.3 12.2
25/12:33am 7.4 1.1 5.9 90 0.7 W 28 39 15 21 1009.3 1009.3 12.2
25/12:30am 7.5 1.2 5.8 89 0.8 W 28 35 15 19 1009.2 1009.1 12.2
25/12:00am 7.9 0.9 6.0 88 0.9 W 32 41 17 22 1008.6 1008.6 12.2
 
Date/Time
EST
Temp
°C
App
Temp
°C
Dew
Point
°C
Rel
Hum
%
Delta-T
°C
Wind Press
QNH
hPa
Press
MSL
hPa
Rain since
9am
mm
Dir  Spd
km/h
Gust
km/h
Spd
kts
Gust
kts
24/11:35pm 8.1 2.4 6.6 90 0.7 W 26 33 14 18 1008.4 1008.4 12.2
24/11:30pm 8.2 2.1 6.8 91 0.7 WSW 28 41 15 22 1008.4 1008.4 12.2
24/11:27pm 8.2 1.7 6.7 90 0.7 WSW 30 41 16 22 1008.3 1008.2 12.2
24/11:05pm 8.8 3.0 7.9 94 0.5 W 28 46 15 25 1008.1 1008.0 12.0
24/11:00pm 8.9 3.5 8.0 94 0.5 W 26 33 14 18 1008.2 1008.1 11.8
24/10:54pm 8.9 3.5 8.0 94 0.5 W 26 39 14 21 1008.2 1008.1 11.8
24/10:31pm 9.0 2.9 8.1 94 0.5 W 30 43 16 23 1008.3 1008.2 11.4
24/10:30pm 9.0 2.9 8.1 94 0.5 W 30 43 16 23 1008.4 1008.4 11.4
24/10:08pm 8.9 3.9 8.0 94 0.5 W 24 33 13 18 1008.6 1008.6 11.4
24/10:00pm 8.9 3.8 7.8 93 0.6 W 24 33 13 18 1008.4 1008.4 11.2
24/09:58pm 8.9 3.8 7.8 93 0.6 W 24 33 13 18 1008.4 1008.4 11.0
24/09:52pm 9.0 3.5 7.6 91 0.7 W 26 33 14 18 1008.5 1008.5 10.2
24/09:44pm 9.0 3.5 7.5 90 0.8 W 26 35 14 19 1008.4 1008.4 10.2
24/09:30pm 9.6 4.4 8.7 94 0.5 W 26 35 14 19 1008.3 1008.2 10.2
24/09:00pm 10.1 5.8 9.3 95 0.4 WNW 22 32 12 17 1007.5 1007.4 7.8
24/08:58pm 10.1 5.4 9.3 95 0.4 WNW 24 32 13 17 1007.5 1007.4 7.8
24/08:30pm 10.0 5.7 9.4 96 0.3 WNW 22 30 12 16 1007.8 1007.7 7.8
24/08:00pm 10.0 6.1 9.4 96 0.3 NW 20 28 11 15 1008.1 1008.0 7.8
24/07:30pm 9.9 6.9 9.3 96 0.3 NW 15 20 8 11 1008.2 1008.1 7.8
24/07:00pm 10.0 7.8 9.2 95 0.4 NW 11 15 6 8 1008.3 1008.2 7.6
24/06:30pm 9.9 9.7 9.1 95 0.4 CALM 0 0 0 0 1008.5 1008.5 7.4
24/06:17pm 9.9 9.7 9.0 94 0.5 CALM 0 0 0 0 1008.2 1008.1 7.2
24/06:06pm 9.8 9.6 8.9 94 0.5 CALM 0 0 0 0 1007.9 1007.8 7.2
24/06:00pm 9.8 9.6 8.9 94 0.5 CALM 0 0 0 0 1007.5 1007.4 7.2
24/05:34pm 9.9 9.6 8.8 93 0.6 CALM 0 0 0 0 1007.8 1007.7 7.0
24/05:30pm 9.9 9.6 8.8 93 0.6 CALM 0 0 0 0 1007.8 1007.7 7.0
24/05:00pm 10.0 9.8 8.9 93 0.6 CALM 0 0 0 0 1008.0 1007.9 6.8
24/04:30pm 10.0 8.6 8.9 93 0.6 ESE 6 11 3 6 1007.1 1007.0 6.8
24/04:00pm 10.1 8.2 9.2 94 0.5 E 9 11 5 6 1007.4 1007.3 6.8
24/03:55pm 10.0 8.1 9.1 94 0.5 ESE 9 11 5 6 1007.2 1007.1 6.8
24/03:33pm 10.0 9.0 8.8 92 0.6 SSW 4 9 2 5 1007.9 1007.8 6.4
24/03:31pm 10.1 9.1 8.9 92 0.6 SSW 4 9 2 5 1007.9 1007.8 6.4
24/03:30pm 10.1 9.1 8.9 92 0.6 SSW 4 9 2 5 1007.9 1007.8 6.2
24/03:23pm 10.1 9.8 8.7 91 0.7 CALM 0 9 0 5 1008.1 1008.0 5.8
24/03:00pm 10.2 9.9 8.8 91 0.7 CALM 0 0 0 0 1008.1 1008.0 5.8
24/02:30pm 10.4 9.4 8.8 90 0.8 ENE 4 20 2 11 1008.4 1008.4 5.4
24/02:27pm 10.3 10.0 8.6 89 0.9 CALM 0 0 0 0 1008.1 1008.0 5.4
24/02:00pm 10.2 9.9 8.6 90 0.8 CALM 0 0 0 0 1008.0 1007.9 5.4
24/01:30pm 9.9 6.0 8.7 92 0.6 E 19 26 10 14 1007.2 1007.1 5.4
24/01:00pm 9.8 7.3 8.4 91 0.7 ENE 11 17 6 9 1008.5 1008.5 5.2
24/12:30pm 9.7 5.6 8.5 92 0.6 ENE 20 28 11 15 1008.9 1008.8 5.0
24/12:00pm 9.8 6.2 8.4 91 0.7 ENE 17 22 9 12 1010.3 1010.3 3.6
24/11:30am 9.9 5.0 8.5 91 0.7 E 24 32 13 17 1009.2 1009.1 3.0
24/11:00am 9.8 4.9 8.6 92 0.6 E 24 30 13 16 1010.0 1009.9 2.8
24/10:55am 9.7 5.2 8.5 92 0.6 ESE 22 28 12 15 1010.4 1010.4 2.8
24/10:33am 9.7 6.2 8.6 93 0.6 SE 17 22 9 12 1011.3 1011.3 2.0
24/10:30am 9.6 6.0 8.5 93 0.6 SE 17 22 9 12 1011.3 1011.3 1.8
24/10:00am 9.6 5.1 8.5 93 0.6 ESE 22 30 12 16 1011.3 1011.3 1.2
24/09:30am 9.4 4.9 8.6 95 0.4 ESE 22 26 12 14 1011.3 1011.3 0.8
24/09:00am 9.1 4.9 8.2 94 0.5 ESE 20 28 11 15 1012.3 1012.3 59.4
24/08:30am 8.9 6.0 8.1 95 0.4 E 13 17 7 9 1012.6 1012.7 58.4
24/08:00am 8.7 6.5 7.9 95 0.4 SE 9 15 5 8 1013.1 1013.1 56.4
24/07:30am 8.7 6.1 7.9 95 0.4 SE 11 15 6 8 1012.5 1012.5 53.2
24/07:00am 8.6 5.2 7.8 95 0.4 ESE 15 20 8 11 1012.0 1012.0 50.8
24/06:30am 8.6 4.3 7.7 94 0.5 ESE 20 30 11 16 1011.1 1011.1 48.6
24/06:00am 8.6 4.5 7.8 95 0.4 ESE 19 24 10 13 1011.4 1011.4 45.8
24/05:30am 8.7 4.4 7.9 95 0.4 ESE 20 28 11 15 1011.7 1011.8 41.8
24/05:10am 8.7 5.0 7.8 94 0.5 SSE 17 24 9 13 1012.5 1012.5 38.6
24/05:00am 8.8 5.5 7.9 94 0.5 SE 15 20 8 11 1012.1 1012.1 37.4
24/04:56am 8.8 5.1 7.9 94 0.5 SE 17 22 9 12 1012.0 1012.0 36.8
24/04:30am 9.0 4.8 8.1 94 0.5 ESE 20 26 11 14 1011.4 1011.4 33.4
24/04:00am 9.1 6.6 8.3 95 0.4 ESE 11 17 6 9 1012.2 1012.2 31.0
24/03:30am 9.0 6.1 8.1 94 0.5 SSE 13 17 7 9 1012.6 1012.7 28.4
24/03:02am 9.1 5.4 7.9 92 0.6 SSE 17 26 9 14 1012.3 1012.3 25.4
24/03:00am 9.1 5.0 7.9 92 0.6 SSE 19 26 10 14 1012.3 1012.3 25.2
24/02:30am 9.5 6.7 8.7 95 0.4 SSE 13 17 7 9 1013.0 1013.0 23.6
24/02:00am 9.6 6.8 8.7 94 0.5 SE 13 19 7 10 1013.0 1013.0 21.4
24/01:53am 9.6 7.2 8.7 94 0.5 SSE 11 17 6 9 1013.1 1013.1 20.6
24/01:30am 9.7 7.4 8.9 95 0.4 SE 11 22 6 12 1013.0 1013.0 18.8
24/01:15am 9.7 7.4 8.9 95 0.4 SE 11 17 6 9 1013.3 1013.3 17.8
24/01:03am 9.7 7.8 8.9 95 0.4 ESE 9 13 5 7 1013.3 1013.3 17.2
24/01:00am 9.7 7.8 8.9 95 0.4 ESE 9 13 5 7 1013.5 1013.6 17.2
24/12:30am 9.7 6.6 8.8 94 0.5 ESE 15 19 8 10 1013.6 1013.7 15.8
24/12:00am 9.8 7.1 9.0 95 0.4 ESE 13 17 7 9 1013.9 1013.9 14.0
 
Date/Time
EST
Temp
°C
App
Temp
°C
Dew
Point
°C
Rel
Hum
%
Delta-T
°C
Wind Press
QNH
hPa
Press
MSL
hPa
Rain since
9am
mm
Dir  Spd
km/h
Gust
km/h
Spd
kts
Gust
kts
23/11:30pm 9.8 6.7 9.0 95 0.4 ESE 15 17 8 9 1014.3 1014.4 13.0
23/11:00pm 10.0 8.1 9.2 95 0.4 E 9 11 5 6 1015.4 1015.5 11.8
23/10:30pm 10.1 8.3 9.3 95 0.4 E 9 11 5 6 1015.7 1015.8 9.8
23/10:00pm 10.2 8.4 9.3 94 0.5 ENE 9 11 5 6 1015.8 1015.9 8.2
23/09:59pm 10.2 8.4 9.3 94 0.5 ENE 9 11 5 6 1016.0 1016.1 8.2
23/09:40pm 10.3 8.1 9.4 94 0.5 NE 11 13 6 7 1016.1 1016.2 7.2
23/09:30pm 10.2 8.7 9.3 94 0.5 E 7 11 4 6 1016.0 1016.1 6.8
23/09:00pm 10.1 7.9 9.2 94 0.5 SSE 11 13 6 7 1015.3 1015.4 6.2
23/08:30pm 10.4 8.6 9.5 94 0.5 SSE 9 11 5 6 1015.8 1015.9 5.6
23/08:00pm 10.5 9.1 9.7 95 0.4 S 7 11 4 6 1016.0 1016.1 5.0
23/07:30pm 10.7 10.7 9.8 94 0.5 CALM 0 0 0 0 1016.1 1016.2 4.4
23/07:03pm 11.0 11.0 9.9 93 0.6 CALM 0 0 0 0 1016.1 1016.2 3.8
23/07:00pm 11.0 11.0 9.9 93 0.6 CALM 0 0 0 0 1016.1 1016.2 3.8
23/06:35pm 11.1 9.9 10.2 94 0.5 WNW 7 11 4 6 1016.2 1016.3 3.2
23/06:31pm 11.1 9.5 10.2 94 0.5 WNW 9 13 5 7 1016.2 1016.3 3.0
23/06:30pm 11.1 9.5 10.2 94 0.5 WNW 9 13 5 7 1016.2 1016.3 3.0
23/06:21pm 11.1 9.9 10.2 94 0.5 NW 7 9 4 5 1016.1 1016.2 2.8
23/06:00pm 11.1 9.1 10.0 93 0.6 NNW 11 15 6 8 1016.1 1016.2 1.4
23/05:43pm 11.0 8.5 9.6 91 0.7 NNW 13 15 7 8 1015.8 1015.9 0.6
23/05:30pm 11.3 8.3 9.4 88 1.0 NNW 15 24 8 13 1015.7 1015.8 0.4
23/05:29pm 11.3 8.3 9.4 88 1.0 NNW 15 24 8 13 1015.7 1015.8 0.4
23/05:00pm 12.5 9.8 9.1 80 1.8 WNW 13 17 7 9 1015.3 1015.4 0.4
23/04:30pm 12.8 8.7 8.7 76 2.2 WNW 20 26 11 14 1015.0 1015.0 0.4
23/04:00pm 13.3 9.3 9.0 75 2.3 NW 20 26 11 14 1014.6 1014.7 0.4
23/03:30pm 13.6 9.2 8.9 73 2.5 NW 22 30 12 16 1014.3 1014.4 0.4
23/03:00pm 14.0 9.3 9.4 74 2.5 WNW 24 32 13 17 1014.6 1014.7 0.4
23/02:30pm 13.4 8.6 8.9 74 2.4 W 24 32 13 17 1014.6 1014.7 0.4
23/02:00pm 13.7 8.5 9.0 73 2.5 W 26 33 14 18 1014.1 1014.1 0.4
23/01:30pm 13.6 9.2 9.1 74 2.4 WNW 22 30 12 16 1014.0 1014.0 0.4

Other Formats:

Comma delimited format used in spreadsheet applications
http://www.bom.gov.au/fwo/IDN60801/IDN60801.94588.axf

JavaScript Object Notation format (JSON) in row-major order
http://www.bom.gov.au/fwo/IDN60801/IDN60801.94588.json